Time;durP1;ratioP1;P1;durP2;ratioP2;P2;SDS_P1;SDS_P2;PMS_P1;PMS_P2;Temp;Humidity;BMP_temperature;BMP_pressure;BME280_temperature;BME280_humidity;BME280_pressure;Samples;Min_cycle;Max_cycle;Signal;HPM_P1;HPM_P2
2021/06/16 00:01:33;;;;;;;1999.90;999.90;;;23.30;99.90;;;;;;5038494;28;20841;-89
2021/06/16 00:03:58;;;;;;;1999.90;999.90;;;23.30;99.90;;;;;;5055452;28;20416;-89
2021/06/16 00:06:24;;;;;;;1999.90;999.90;;;23.20;99.90;;;;;;5056109;28;20407;-89
2021/06/16 00:08:50;;;;;;;1999.90;999.90;;;23.20;99.90;;;;;;5055145;28;20227;-89
2021/06/16 00:11:21;;;;;;;1999.90;999.90;;;23.20;99.90;;;;;;5055026;28;20290;-89
2021/06/16 00:13:48;;;;;;;1999.90;999.90;;;23.20;99.90;;;;;;5056547;28;20153;-89
2021/06/16 00:16:13;;;;;;;1999.90;999.90;;;23.10;99.90;;;;;;5060512;22;20492;-81
2021/06/16 00:18:39;;;;;;;1999.90;999.90;;;23.10;99.90;;;;;;5036709;28;20450;-80
2021/06/16 00:21:05;;;;;;;1999.90;999.90;;;23.10;99.90;;;;;;5036464;28;20162;-81
2021/06/16 00:23:31;;;;;;;1999.90;999.90;;;23.10;99.90;;;;;;5036375;28;20176;-80
2021/06/16 00:25:56;;;;;;;1999.90;999.90;;;23.10;99.90;;;;;;5036283;28;20400;-81
2021/06/16 00:28:22;;;;;;;1999.90;999.90;;;23.00;99.90;;;;;;5035903;28;20189;-80
2021/06/16 00:30:48;;;;;;;1999.90;999.90;;;23.00;99.90;;;;;;5036222;28;20166;-81
2021/06/16 00:33:14;;;;;;;1999.90;999.90;;;23.00;99.90;;;;;;5034893;28;20165;-80
2021/06/16 00:35:40;;;;;;;1999.90;999.90;;;23.00;99.90;;;;;;5036165;28;20169;-80
2021/06/16 00:38:05;;;;;;;1999.90;999.90;;;23.00;99.90;;;;;;5036180;28;20215;-81
2021/06/16 00:40:31;;;;;;;1999.90;999.90;;;23.00;99.90;;;;;;5035727;28;20443;-80
2021/06/16 00:42:57;;;;;;;1999.90;999.90;;;23.00;99.90;;;;;;5034381;28;20242;-80
2021/06/16 00:45:24;;;;;;;1999.90;999.90;;;22.90;99.90;;;;;;5034391;28;20923;-80
2021/06/16 00:47:55;;;;;;;1999.90;999.90;;;22.90;99.90;;;;;;5036325;28;20415;-80
2021/06/16 00:50:25;;;;;;;1999.90;999.90;;;22.90;99.90;;;;;;5035642;28;20506;-80
2021/06/16 00:52:51;;;;;;;1999.90;999.90;;;22.80;99.90;;;;;;5035578;28;20431;-80
2021/06/16 00:55:17;;;;;;;1999.90;999.90;;;22.80;99.90;;;;;;5035263;28;20408;-78
2021/06/16 00:57:43;;;;;;;1999.90;999.90;;;22.80;99.90;;;;;;5033875;28;20426;-80
2021/06/16 01:00:24;;;;;;;1999.90;999.90;;;22.80;99.90;;;;;;5034876;28;20428;-80
2021/06/16 01:02:54;;;;;;;1999.90;999.90;;;22.70;99.90;;;;;;5034950;28;20545;-80
2021/06/16 01:05:23;;;;;;;1999.90;999.90;;;22.70;99.90;;;;;;5035252;28;20495;-80
2021/06/16 01:07:58;;;;;;;1999.90;999.90;;;22.70;99.90;;;;;;5034901;28;20771;-80
2021/06/16 01:10:25;;;;;;;1999.90;999.90;;;22.70;99.90;;;;;;5035918;28;20474;-81
2021/06/16 01:13:04;;;;;;;1999.90;999.90;;;22.60;99.90;;;;;;5034526;28;20416;-80
2021/06/16 01:16:01;;;;;;;1999.90;999.90;;;22.70;99.90;;;;;;5036138;28;20389;-80
2021/06/16 01:18:28;;;;;;;1999.90;999.90;;;22.60;99.90;;;;;;5034580;28;20964;-81
2021/06/16 01:20:56;;;;;;;1999.90;999.90;;;22.60;99.90;;;;;;5036330;28;20752;-80
2021/06/16 01:23:49;;;;;;;1999.90;999.90;;;22.60;99.90;;;;;;5035720;28;20483;-80
2021/06/16 01:26:19;;;;;;;1999.90;999.90;;;22.50;99.90;;;;;;5036109;28;20380;-80
2021/06/16 01:28:45;;;;;;;1999.90;999.90;;;22.50;99.90;;;;;;5035632;28;20842;-80
2021/06/16 01:31:15;;;;;;;1999.90;999.90;;;22.40;99.90;;;;;;5035015;28;20418;-80
2021/06/16 01:33:40;;;;;;;1999.90;999.90;;;22.40;99.90;;;;;;5035094;28;20415;-80
2021/06/16 01:36:09;;;;;;;1999.90;999.90;;;22.40;99.90;;;;;;5035673;28;20835;-81
2021/06/16 01:38:35;;;;;;;1999.90;999.90;;;22.40;99.90;;;;;;5035285;28;20649;-80
2021/06/16 01:41:03;;;;;;;1999.90;999.90;;;22.40;99.90;;;;;;5035223;28;20487;-80
2021/06/16 01:43:30;;;;;;;1999.90;999.90;;;22.40;99.90;;;;;;5035209;28;20423;-80
2021/06/16 01:45:59;;;;;;;1999.90;999.90;;;22.40;99.90;;;;;;5035393;28;20412;-80
2021/06/16 01:48:26;;;;;;;1999.90;999.90;;;22.30;99.90;;;;;;5035656;28;20943;-80
2021/06/16 01:50:53;;;;;;;1999.90;999.90;;;22.30;99.90;;;;;;5035229;28;20546;-80
2021/06/16 01:53:20;;;;;;;1999.90;999.90;;;22.30;99.90;;;;;;5035192;28;20447;-80
2021/06/16 01:55:51;;;;;;;1999.90;999.90;;;22.20;99.90;;;;;;5034493;28;20416;-81
2021/06/16 01:58:18;;;;;;;1999.90;999.90;;;22.20;99.90;;;;;;5034985;28;20391;-81
2021/06/16 02:00:46;;;;;;;1999.90;999.90;;;22.10;99.90;;;;;;5035011;28;20906;-80
2021/06/16 02:03:13;;;;;;;1999.90;999.90;;;22.10;99.90;;;;;;5035127;28;20895;-80
2021/06/16 02:05:39;;;;;;;1999.90;999.90;;;22.00;99.90;;;;;;5035028;28;20402;-82
2021/06/16 02:08:07;;;;;;;1999.90;999.90;;;22.00;99.90;;;;;;5035454;28;20423;-81
2021/06/16 02:10:38;;;;;;;1999.90;999.90;;;22.00;99.90;;;;;;5034969;28;20500;-80
2021/06/16 02:13:07;;;;;;;1999.90;999.90;;;22.00;99.90;;;;;;5034788;28;20834;-80
2021/06/16 02:16:20;;;;;;;1999.90;999.90;;;21.90;99.90;;;;;;5034392;28;20412;-80
2021/06/16 02:19:05;;;;;;;1999.90;999.90;;;21.90;99.90;;;;;;5033482;28;20871;-81
2021/06/16 02:21:31;;;;;;;1999.90;999.90;;;21.80;99.90;;;;;;5034828;28;20814;-80
2021/06/16 02:23:57;;;;;;;1999.90;999.90;;;21.80;99.90;;;;;;5036634;28;20443;-82
2021/06/16 02:26:23;;;;;;;1999.90;999.90;;;21.70;99.90;;;;;;5038594;28;20400;-80
2021/06/16 02:28:49;;;;;;;1999.90;999.90;;;21.70;99.90;;;;;;5038593;28;20242;-81
2021/06/16 02:31:15;;;;;;;1999.90;999.90;;;21.70;99.90;;;;;;5038952;28;20483;-80
2021/06/16 02:33:41;;;;;;;1999.90;999.90;;;21.70;99.90;;;;;;5037179;28;20423;-80
2021/06/16 02:36:11;;;;;;;1999.90;999.90;;;21.70;99.90;;;;;;5038870;28;20173;-80
2021/06/16 02:38:39;;;;;;;1999.90;999.90;;;21.70;99.90;;;;;;5038651;28;20787;-80
2021/06/16 02:41:10;;;;;;;1999.90;999.90;;;21.70;99.90;;;;;;5038308;28;20408;-80
2021/06/16 02:43:36;;;;;;;1999.90;999.90;;;21.70;99.90;;;;;;5037197;28;20400;-80
2021/06/16 02:46:03;;;;;;;1999.90;999.90;;;21.60;99.90;;;;;;5037086;28;20419;-80
2021/06/16 02:48:28;;;;;;;1999.90;999.90;;;21.60;99.90;;;;;;5038350;28;20447;-80
2021/06/16 02:50:57;;;;;;;1999.90;999.90;;;21.60;99.90;;;;;;5038452;28;20407;-80
2021/06/16 02:53:25;;;;;;;1999.90;999.90;;;21.60;99.90;;;;;;5038360;28;20177;-80
2021/06/16 02:55:54;;;;;;;1999.90;999.90;;;21.50;99.90;;;;;;5036584;28;20414;-80
2021/06/16 02:58:21;;;;;;;1999.90;999.90;;;21.50;99.90;;;;;;5036672;28;20412;-80
2021/06/16 03:00:54;;;;;;;1999.90;999.90;;;21.50;99.90;;;;;;5038058;28;20400;-80
2021/06/16 03:03:22;;;;;;;1999.90;999.90;;;21.50;99.90;;;;;;5036799;28;20776;-80
2021/06/16 03:05:49;;;;;;;1999.90;999.90;;;21.50;99.90;;;;;;5036542;28;20950;-80
2021/06/16 03:08:15;;;;;;;1999.90;999.90;;;21.50;99.90;;;;;;5036637;28;20415;-80
2021/06/16 03:10:42;;;;;;;1999.90;999.90;;;21.40;99.90;;;;;;5037811;28;20410;-80
2021/06/16 03:13:09;;;;;;;1999.90;999.90;;;21.40;99.90;;;;;;5037396;28;20483;-80
2021/06/16 03:15:36;;;;;;;1999.90;999.90;;;21.40;99.90;;;;;;5037837;28;20411;-80
2021/06/16 03:18:03;;;;;;;1999.90;999.90;;;21.40;99.90;;;;;;5037350;28;20391;-81
2021/06/16 03:20:31;;;;;;;1999.90;999.90;;;21.40;99.90;;;;;;5037707;28;20923;-80
2021/06/16 03:22:59;;;;;;;1999.90;999.90;;;21.40;99.90;;;;;;5037860;28;20399;-80
2021/06/16 03:25:25;;;;;;;1999.90;999.90;;;21.40;99.90;;;;;;5036130;28;20491;-81
2021/06/16 03:27:52;;;;;;;1999.90;999.90;;;21.40;99.90;;;;;;5037493;28;20404;-80
2021/06/16 03:30:24;;;;;;;1999.90;999.90;;;21.40;99.90;;;;;;5037399;28;20440;-80
2021/06/16 03:32:53;;;;;;;1999.90;999.90;;;21.40;99.90;;;;;;5037342;28;20431;-81
2021/06/16 03:35:19;;;;;;;1999.90;999.90;;;21.40;99.90;;;;;;5035526;28;20419;-81
2021/06/16 03:37:46;;;;;;;1999.90;999.90;;;21.40;99.90;;;;;;5037258;28;20785;-80
2021/06/16 03:40:13;;;;;;;1999.90;999.90;;;21.40;99.90;;;;;;5035963;28;20830;-80
2021/06/16 03:42:40;;;;;;;1999.90;999.90;;;21.40;99.90;;;;;;5035943;28;20501;-81
2021/06/16 03:45:09;;;;;;;1999.90;999.90;;;21.40;99.90;;;;;;5035939;28;20443;-80
2021/06/16 03:47:40;;;;;;;1999.90;999.90;;;21.40;99.90;;;;;;5036957;28;20399;-80
2021/06/16 03:50:09;;;;;;;1999.90;999.90;;;21.40;99.90;;;;;;5035757;28;20451;-80
2021/06/16 03:52:36;;;;;;;1999.90;999.90;;;21.40;99.90;;;;;;5036871;28;20478;-80
2021/06/16 03:55:03;;;;;;;1999.90;999.90;;;21.40;99.90;;;;;;5035648;28;20419;-79
2021/06/16 03:57:30;;;;;;;1999.90;999.90;;;21.30;99.90;;;;;;5036847;28;20413;-80
2021/06/16 03:59:55;;;;;;;1999.90;999.90;;;21.40;99.90;;;;;;5036899;28;20431;-80
2021/06/16 04:02:22;;;;;;;1999.90;999.90;;;21.40;99.90;;;;;;5037422;28;20900;-80
2021/06/16 04:04:48;;;;;;;1999.90;999.90;;;21.40;99.90;;;;;;5036899;28;20200;-80
2021/06/16 04:07:19;;;;;;;1999.90;999.90;;;21.40;99.90;;;;;;5036900;28;20499;-80
2021/06/16 04:09:52;;;;;;;1999.90;999.90;;;21.40;99.90;;;;;;5037113;28;20474;-80
2021/06/16 04:12:19;;;;;;;1999.90;999.90;;;21.50;99.90;;;;;;5035470;28;20436;-81
2021/06/16 04:14:46;;;;;;;1999.90;999.90;;;21.50;99.90;;;;;;5036855;28;20883;-80
2021/06/16 04:17:12;;;;;;;1999.90;999.90;;;21.50;99.90;;;;;;5036893;28;20419;-80
2021/06/16 04:19:38;;;;;;;1999.90;999.90;;;21.50;99.90;;;;;;5035629;28;20420;-80
2021/06/16 04:22:04;;;;;;;1999.90;999.90;;;21.50;99.90;;;;;;5035469;28;20416;-80
2021/06/16 04:24:30;;;;;;;1999.90;999.90;;;21.50;99.90;;;;;;5036657;28;20173;-82
2021/06/16 04:26:56;;;;;;;1999.90;999.90;;;21.50;99.90;;;;;;5035336;28;20419;-80
2021/06/16 04:29:22;;;;;;;1999.90;999.90;;;21.50;99.90;;;;;;5036409;28;20416;-81
2021/06/16 04:31:48;;;;;;;1999.90;999.90;;;21.60;99.90;;;;;;5036734;28;20181;-80
2021/06/16 04:34:13;;;;;;;1999.90;999.90;;;21.60;99.90;;;;;;5036455;28;20404;-81
2021/06/16 04:36:39;;;;;;;1999.90;999.90;;;21.70;99.90;;;;;;5034951;28;20165;-79
2021/06/16 04:39:05;;;;;;;1999.90;999.90;;;21.70;99.90;;;;;;5034840;28;20189;-80
2021/06/16 04:41:30;;;;;;;1999.90;999.90;;;21.80;99.90;;;;;;5036134;28;20166;-79
2021/06/16 04:43:56;;;;;;;1999.90;999.90;;;21.80;99.90;;;;;;5036058;28;20166;-80
2021/06/16 04:46:24;;;;;;;1999.90;999.90;;;21.80;99.90;;;;;;5034101;28;20611;-81
2021/06/16 04:48:50;;;;;;;1999.90;999.90;;;21.80;99.90;;;;;;5034337;28;20186;-80
2021/06/16 04:51:16;;;;;;;1999.90;999.90;;;21.80;99.90;;;;;;5034878;28;21023;-81
2021/06/16 04:53:41;;;;;;;1999.90;999.90;;;21.90;99.90;;;;;;5035977;28;20637;-79
2021/06/16 04:56:07;;;;;;;1999.90;999.90;;;21.90;99.90;;;;;;5036219;28;20158;-80
2021/06/16 04:58:33;;;;;;;1999.90;999.90;;;21.80;99.90;;;;;;5035956;28;20189;-79
2021/06/16 05:00:58;;;;;;;1999.90;999.90;;;21.80;99.90;;;;;;5034527;28;20166;-79
2021/06/16 05:03:24;;;;;;;1999.90;999.90;;;21.80;99.90;;;;;;5034554;28;20284;-79
2021/06/16 05:05:50;;;;;;;1999.90;999.90;;;21.80;99.90;;;;;;5034694;28;20647;-79
2021/06/16 05:08:15;;;;;;;1999.90;999.90;;;21.80;99.90;;;;;;5035586;28;20165;-79
2021/06/16 05:10:41;;;;;;;1999.90;999.90;;;21.90;99.90;;;;;;5035726;28;20169;-79
2021/06/16 05:13:07;;;;;;;1999.90;999.90;;;21.90;99.90;;;;;;5035535;28;20185;-81
2021/06/16 05:15:32;;;;;;;1999.90;999.90;;;21.90;99.90;;;;;;5035395;28;20177;-80
2021/06/16 05:17:58;;;;;;;1999.90;999.90;;;21.90;99.90;;;;;;5035491;28;20160;-79
2021/06/16 05:20:25;;;;;;;1999.90;999.90;;;21.80;99.90;;;;;;5034252;28;20217;-80
2021/06/16 05:22:51;;;;;;;1999.90;999.90;;;21.80;99.90;;;;;;5036052;28;20400;-81
2021/06/16 05:25:17;;;;;;;1999.90;999.90;;;21.70;99.90;;;;;;5035646;28;20434;-80
2021/06/16 05:27:43;;;;;;;1999.90;999.90;;;21.70;99.90;;;;;;5035813;28;20396;-79
2021/06/16 05:30:09;;;;;;;1999.90;999.90;;;21.70;99.90;;;;;;5035121;28;20948;-80
2021/06/16 05:32:36;;;;;;;1999.90;999.90;;;21.70;99.90;;;;;;5035364;28;20181;-79
2021/06/16 05:35:03;;;;;;;1999.90;999.90;;;21.70;99.90;;;;;;5034453;28;20408;-79
2021/06/16 05:37:29;;;;;;;1999.90;999.90;;;21.80;99.90;;;;;;5036047;28;20436;-81
2021/06/16 05:39:55;;;;;;;1999.90;999.90;;;21.80;99.90;;;;;;5034885;28;20436;-80
2021/06/16 05:42:21;;;;;;;1999.90;999.90;;;21.80;99.90;;;;;;5034719;28;20234;-81
2021/06/16 05:44:46;;;;;;;1999.90;999.90;;;21.80;99.90;;;;;;5034495;28;20181;-80
2021/06/16 05:47:12;;;;;;;1999.90;999.90;;;21.80;99.90;;;;;;5035612;28;20252;-80
2021/06/16 05:49:38;;;;;;;1999.90;999.90;;;21.80;99.90;;;;;;5035517;28;20189;-80
2021/06/16 05:52:04;;;;;;;1999.90;999.90;;;21.80;99.90;;;;;;5034939;28;20197;-80
2021/06/16 05:54:29;;;;;;;1999.90;999.90;;;21.80;99.90;;;;;;5035707;28;20161;-81
2021/06/16 05:56:55;;;;;;;1999.90;999.90;;;21.80;99.90;;;;;;5033876;28;20905;-80
2021/06/16 05:59:21;;;;;;;1999.90;999.90;;;21.90;99.90;;;;;;5034365;28;20197;-80
2021/06/16 06:01:47;;;;;;;1999.90;999.90;;;21.80;99.90;;;;;;5035473;28;20173;-81
2021/06/16 06:04:12;;;;;;;1999.90;999.90;;;21.90;99.90;;;;;;5035300;28;20204;-80
2021/06/16 06:06:38;;;;;;;1999.90;999.90;;;21.80;99.90;;;;;;5033774;28;20169;-80
2021/06/16 06:09:08;;;;;;;1999.90;999.90;;;21.80;99.90;;;;;;5035078;28;20189;-81
2021/06/16 06:11:34;;;;;;;1999.90;999.90;;;21.90;99.90;;;;;;5035587;28;20239;-81
2021/06/16 06:14:04;;;;;;;1999.90;999.90;;;21.90;99.90;;;;;;5034372;28;20439;-82
2021/06/16 06:16:30;;;;;;;1999.90;999.90;;;21.90;99.90;;;;;;5100647;23;20522;-87
2021/06/16 06:18:56;;;;;;;1999.90;999.90;;;22.00;99.90;;;;;;5052963;28;21080;-86
2021/06/16 06:21:23;;;;;;;1999.90;999.90;;;22.00;99.90;;;;;;5051594;28;20415;-86
2021/06/16 06:23:49;;;;;;;1999.90;999.90;;;22.00;99.90;;;;;;5052840;28;20826;-86
2021/06/16 06:26:15;;;;;;;1999.90;999.90;;;22.00;99.90;;;;;;5053382;28;20435;-86
2021/06/16 06:28:43;;;;;;;1999.90;999.90;;;22.00;99.90;;;;;;5053350;28;20529;-86
2021/06/16 06:31:08;;;;;;;1999.90;999.90;;;22.00;99.90;;;;;;5052789;28;20157;-86
2021/06/16 06:33:34;;;;;;;1999.90;999.90;;;22.10;1.00;;;;;;5053100;28;20776;-85
2021/06/16 06:36:00;;;;;;;1999.90;999.90;;;22.20;99.90;;;;;;5052691;28;20169;-86
2021/06/16 06:38:26;;;;;;;1999.90;999.90;;;22.10;99.90;;;;;;5052707;28;20176;-85
2021/06/16 06:40:51;;;;;;;1999.90;999.90;;;22.10;99.90;;;;;;5052974;28;20564;-86
2021/06/16 06:43:17;;;;;;;1999.90;999.90;;;22.20;99.90;;;;;;5052154;28;20169;-88
2021/06/16 06:45:44;;;;;;;1999.90;999.90;;;22.30;99.90;;;;;;5053363;28;20540;-87
2021/06/16 06:48:10;;;;;;;1999.90;999.90;;;22.30;99.90;;;;;;5051746;28;20173;-88
2021/06/16 06:50:36;;;;;;;1999.90;999.90;;;22.30;1.00;;;;;;5053352;28;20399;-88
2021/06/16 06:53:01;;;;;;;1999.90;999.90;;;22.30;99.90;;;;;;5051762;28;20203;-87
2021/06/16 06:55:27;;;;;;;1999.90;999.90;;;22.30;99.90;;;;;;5053394;28;20212;-87
2021/06/16 06:57:53;;;;;;;1999.90;999.90;;;22.40;99.90;;;;;;5052835;28;20199;-88
2021/06/16 07:00:21;;;;;;;1999.90;999.90;;;22.50;97.60;;;;;;5051568;28;20215;-86
2021/06/16 07:02:47;;;;;;;1999.90;999.90;;;22.50;99.90;;;;;;5053447;28;20165;-87
2021/06/16 07:05:16;;;;;;;1999.90;999.90;;;22.60;1.00;;;;;;5053253;28;20408;-87
2021/06/16 07:07:48;;;;;;;1999.90;999.90;;;22.60;99.90;;;;;;5053189;28;20407;-87
2021/06/16 07:10:14;;;;;;;1999.90;999.90;;;22.60;99.90;;;;;;5054557;28;20438;-87
2021/06/16 07:12:40;;;;;;;1999.90;999.90;;;22.60;99.90;;;;;;5056869;28;20443;-88
2021/06/16 07:15:07;;;;;;;1999.90;999.90;;;22.60;99.90;;;;;;5057103;28;20709;-87
2021/06/16 07:17:33;;;;;;;1999.90;999.90;;;22.60;99.90;;;;;;5055425;28;20838;-88
2021/06/16 07:19:59;;;;;;;1999.90;999.90;;;22.60;99.90;;;;;;5056628;28;20476;-87
2021/06/16 07:22:25;;;;;;;1999.90;999.90;;;22.60;99.90;;;;;;5056362;28;20501;-87
2021/06/16 07:24:51;;;;;;;1999.90;999.90;;;22.70;99.90;;;;;;5056342;28;20246;-87
2021/06/16 07:27:17;;;;;;;1999.90;999.90;;;22.80;99.90;;;;;;5056162;28;20251;-86
2021/06/16 07:29:43;;;;;;;1999.90;999.90;;;22.80;99.90;;;;;;5054634;28;20561;-86
2021/06/16 07:32:09;;;;;;;1999.90;999.90;;;22.80;99.90;;;;;;5055826;28;20185;-85
2021/06/16 07:34:34;;;;;;;1999.90;999.90;;;22.80;99.90;;;;;;5055915;28;20575;-85
2021/06/16 07:37:01;;;;;;;1999.90;999.90;;;22.80;99.90;;;;;;5055800;28;20488;-85
2021/06/16 07:39:27;;;;;;;1999.90;999.90;;;23.00;1.00;;;;;;5055985;28;20303;-85
2021/06/16 07:41:52;;;;;;;1999.90;999.90;;;23.00;1.00;;;;;;5054408;28;20446;-85
2021/06/16 07:44:18;;;;;;;1999.90;999.90;;;23.00;99.90;;;;;;5056196;28;20165;-85
2021/06/16 07:46:44;;;;;;;1999.90;999.90;;;23.10;1.00;;;;;;5055759;28;20509;-85
2021/06/16 07:49:09;;;;;;;1999.90;999.90;;;23.20;1.00;;;;;;5055674;28;20185;-85
2021/06/16 07:51:35;;;;;;;1999.90;999.90;;;23.20;99.90;;;;;;5055765;28;20165;-85
2021/06/16 07:54:01;;;;;;;1999.90;999.90;;;23.30;1.00;;;;;;5055816;28;20189;-85
2021/06/16 07:56:26;;;;;;;1999.90;999.90;;;23.30;1.00;;;;;;5055532;28;20188;-85
2021/06/16 07:58:52;;;;;;;1999.90;999.90;;;23.40;1.00;;;;;;5055672;28;20189;-85
2021/06/16 08:01:19;;;;;;;1999.90;999.90;;;23.30;99.90;;;;;;5056298;28;20196;-86
2021/06/16 08:03:44;;;;;;;1999.90;999.90;;;23.40;99.90;;;;;;5055582;28;20165;-85
2021/06/16 08:06:10;;;;;;;1999.90;999.90;;;23.50;99.90;;;;;;5055195;28;20406;-85
2021/06/16 08:08:36;;;;;;;1999.90;999.90;;;23.50;99.90;;;;;;5055354;28;20192;-85
2021/06/16 08:11:03;;;;;;;1999.90;999.90;;;23.70;99.90;;;;;;5054823;28;20651;-85
2021/06/16 08:13:30;;;;;;;1999.90;999.90;;;23.70;99.90;;;;;;5055900;28;20439;-86
2021/06/16 08:15:55;;;;;;;1999.90;999.90;;;23.70;99.90;;;;;;5055003;28;20914;-85
2021/06/16 08:18:21;;;;;;;1999.90;999.90;;;23.80;99.90;;;;;;5054990;28;20391;-85
2021/06/16 08:20:53;;;;;;;1999.90;999.90;;;23.90;99.90;;;;;;5053907;28;20624;-88
2021/06/16 08:23:18;;;;;;;1999.90;999.90;;;24.00;99.90;;;;;;5055926;28;20259;-87
2021/06/16 08:25:46;;;;;;;1999.90;999.90;;;24.00;99.90;;;;;;5056245;28;20503;-88
2021/06/16 08:28:12;;;;;;;1999.90;999.90;;;24.00;99.90;;;;;;5055888;28;20161;-86
2021/06/16 08:30:38;;;;;;;1999.90;999.90;;;24.00;99.90;;;;;;5055396;28;20885;-88
2021/06/16 08:33:06;;;;;;;1999.90;999.90;;;24.10;1.00;;;;;;5055107;28;20211;-88
2021/06/16 08:35:32;;;;;;;1999.90;999.90;;;24.10;99.90;;;;;;5053991;28;20165;-87
2021/06/16 08:37:58;;;;;;;1999.90;999.90;;;24.20;99.90;;;;;;5053875;28;20414;-87
2021/06/16 08:40:24;;;;;;;1999.90;999.90;;;24.20;99.90;;;;;;5053771;28;20798;-87
2021/06/16 08:42:50;;;;;;;1999.90;999.90;;;24.40;99.90;;;;;;5053457;28;20172;-87
2021/06/16 08:45:20;;;;;;;1999.90;999.90;;;24.60;99.90;;;;;;5053720;28;20173;-87
2021/06/16 08:47:47;;;;;;;1999.90;999.90;;;24.60;99.90;;;;;;5055501;28;20399;-87
2021/06/16 08:50:18;;;;;;;1999.90;999.90;;;24.70;99.90;;;;;;5055792;28;20467;-88
2021/06/16 08:52:45;;;;;;;1999.90;999.90;;;24.80;99.90;;;;;;5054728;28;20443;-87
2021/06/16 08:55:19;;;;;;;1999.90;999.90;;;24.90;99.90;;;;;;5055050;28;20442;-87
2021/06/16 08:57:45;;;;;;;1999.90;999.90;;;25.10;99.90;;;;;;5053466;28;20411;-87
2021/06/16 09:00:14;;;;;;;1999.90;999.90;;;25.10;99.90;;;;;;5055409;28;20546;-88
2021/06/16 09:02:43;;;;;;;1999.90;999.90;;;25.20;99.90;;;;;;5055467;28;20461;-88
2021/06/16 09:05:10;;;;;;;1999.90;999.90;;;25.30;99.90;;;;;;5053226;28;20419;-87
2021/06/16 09:07:38;;;;;;;1999.90;999.90;;;25.40;99.90;;;;;;5053831;28;20799;-87
2021/06/16 09:10:09;;;;;;;1999.90;999.90;;;25.40;99.90;;;;;;5036706;28;20648;-87
2021/06/16 09:12:43;;;;;;;1999.90;999.90;;;25.50;99.90;;;;;;5054581;28;20608;-88
2021/06/16 09:15:12;;;;;;;1999.90;999.90;;;25.50;99.90;;;;;;5054490;28;20415;-86
2021/06/16 09:17:38;;;;;;;1999.90;999.90;;;25.60;99.90;;;;;;5054751;28;20445;-87
2021/06/16 09:20:04;;;;;;;1999.90;999.90;;;25.70;99.90;;;;;;5052533;28;20511;-86
2021/06/16 09:22:38;;;;;;;1999.90;999.90;;;25.80;99.90;;;;;;5054342;28;20250;-88
2021/06/16 09:25:08;;;;;;;1999.90;999.90;;;26.00;99.90;;;;;;5055953;28;20932;-88
2021/06/16 09:27:50;;;;;;;1999.90;999.90;;;26.00;99.90;;;;;;5054467;28;20513;-88
2021/06/16 09:30:22;;;;;;;1999.90;999.90;;;26.10;99.90;;;;;;5055349;28;20420;-89
2021/06/16 09:32:56;;;;;;;1999.90;999.90;;;26.30;99.90;;;;;;5053128;28;20457;-88
2021/06/16 09:35:25;;;;;;;1999.90;999.90;;;26.40;99.90;;;;;;5053667;28;20759;-88
2021/06/16 09:37:52;;;;;;;1999.90;999.90;;;26.60;99.90;;;;;;5054546;28;20395;-88
2021/06/16 09:40:32;;;;;;;1999.90;999.90;;;26.70;99.90;;;;;;5054962;28;20430;-89
2021/06/16 09:43:09;;;;;;;1999.90;999.90;;;26.80;99.90;;;;;;5054777;28;20394;-85
2021/06/16 09:45:38;;;;;;;1999.90;999.90;;;26.90;99.90;;;;;;5052241;28;20416;-85
2021/06/16 09:48:36;;;;;;;1999.90;999.90;;;27.10;99.90;;;;;;5052432;28;20487;-85
2021/06/16 09:51:13;;;;;;;1999.90;999.90;;;27.30;99.90;;;;;;5052040;28;20414;-85
2021/06/16 09:54:21;;;;;;;1999.90;999.90;;;27.40;99.90;;;;;;5053467;28;20806;-85
2021/06/16 09:57:03;;;;;;;1999.90;999.90;;;27.40;1.00;;;;;;5052364;28;20498;-86
2021/06/16 09:59:43;;;;;;;1999.90;999.90;;;27.60;99.90;;;;;;5053153;28;20419;-87
2021/06/16 10:02:18;;;;;;;1999.90;999.90;;;27.60;99.90;;;;;;5053479;28;20403;-86
2021/06/16 10:04:48;;;;;;;1999.90;999.90;;;27.70;99.90;;;;;;5053381;28;20539;-86
2021/06/16 10:07:19;;;;;;;1999.90;999.90;;;27.90;99.90;;;;;;5053494;28;20750;-87
2021/06/16 10:09:51;;;;;;;1999.90;999.90;;;28.00;99.90;;;;;;5052982;28;20938;-86
2021/06/16 10:12:17;;;;;;;1999.90;999.90;;;28.20;99.90;;;;;;5052575;28;20817;-86
2021/06/16 10:14:43;;;;;;;1999.90;999.90;;;28.50;99.90;;;;;;5052998;28;20906;-87
2021/06/16 10:17:09;;;;;;;1999.90;999.90;;;28.60;74.80;;;;;;5051683;28;20438;-86
2021/06/16 10:19:36;;;;;;;1999.90;999.90;;;28.60;71.10;;;;;;5052795;28;20196;-86
2021/06/16 10:22:03;;;;;;;1999.90;999.90;;;28.80;68.20;;;;;;5052996;28;20164;-86
2021/06/16 10:24:32;;;;;;;1999.90;999.90;;;28.90;69.80;;;;;;5052868;28;20508;-87
2021/06/16 10:27:01;;;;;;;1999.90;999.90;;;29.00;55.90;;;;;;5052427;28;20411;-86
2021/06/16 10:29:38;;;;;;;1999.90;999.90;;;28.70;53.60;;;;;;5052862;28;20423;-87
2021/06/16 10:32:07;;;;;;;1999.90;999.90;;;28.70;51.90;;;;;;5053207;28;20434;-86
2021/06/16 10:35:06;;;;;;;1999.90;999.90;;;29.00;52.70;;;;;;5053087;28;20415;-87
2021/06/16 10:37:35;;;;;;;1999.90;999.90;;;29.20;57.90;;;;;;5020042;28;20981;-85
2021/06/16 10:40:15;;;;;;;1999.90;999.90;;;29.50;59.90;;;;;;5051863;28;20423;-86
2021/06/16 10:43:02;;;;;;;1999.90;999.90;;;29.90;54.00;;;;;;5051040;28;20490;-87
2021/06/16 10:45:34;;;;;;;1999.90;999.90;;;30.20;52.70;;;;;;5056417;28;20441;-87
2021/06/16 10:48:06;;;;;;;1999.90;999.90;;;30.50;49.00;;;;;;5057424;28;20414;-87
2021/06/16 10:53:18;;;;;;;1999.90;999.90;;;30.60;28.10;;;;;;5056984;28;20508;-87
2021/06/16 10:58:25;;;;;;;1999.90;999.90;;;30.10;30.60;;;;;;5056794;28;20401;-87
2021/06/16 11:01:13;;;;;;;1999.90;999.90;;;30.20;29.40;;;;;;5055627;28;20411;-87
2021/06/16 11:03:54;;;;;;;1999.90;999.90;;;30.60;28.40;;;;;;5056697;28;20446;-87
2021/06/16 11:06:35;;;;;;;1999.90;999.90;;;30.80;30.80;;;;;;5055132;28;20395;-86
2021/06/16 11:09:07;;;;;;;1999.90;999.90;;;30.90;28.40;;;;;;5056639;28;20448;-88
2021/06/16 11:14:32;;;;;;;1999.90;999.90;;;31.20;24.70;;;;;;5056343;28;20809;-87
2021/06/16 11:16:58;;;;;;;1999.90;999.90;;;31.20;22.10;;;;;;5056444;28;20419;-88
2021/06/16 11:19:28;;;;;;;1999.90;999.90;;;31.20;17.60;;;;;;5056155;28;20445;-86
2021/06/16 11:21:56;;;;;;;1999.90;999.90;;;30.90;23.50;;;;;;5055073;28;20508;-86
2021/06/16 11:24:22;;;;;;;1999.90;999.90;;;31.20;20.40;;;;;;5056170;28;20403;-87
2021/06/16 11:26:50;;;;;;;1999.90;999.90;;;31.50;24.00;;;;;;5056084;28;20766;-87
2021/06/16 11:30:04;;;;;;;1999.90;999.90;;;31.60;17.50;;;;;;5056218;28;20415;-86
2021/06/16 11:32:30;;;;;;;1999.90;999.90;;;31.70;16.00;;;;;;5042936;28;20415;-87
2021/06/16 11:34:56;;;;;;;1999.90;999.90;;;31.70;13.10;;;;;;5056085;28;20395;-87
2021/06/16 11:37:59;;;;;;;1999.90;999.90;;;31.90;12.70;;;;;;5056339;28;20165;-88
2021/06/16 11:40:26;;;;;;;1999.90;999.90;;;32.00;13.70;;;;;;5070085;22;20486;-87
2021/06/16 11:42:53;;;;;;;1999.90;999.90;;;32.10;14.50;;;;;;5055854;28;20447;-87
2021/06/16 11:45:19;;;;;;;1999.90;999.90;;;32.30;13.40;;;;;;5056711;28;20870;-87
2021/06/16 11:47:52;;;;;;;1999.90;999.90;;;32.60;14.70;;;;;;5056328;28;20412;-88
2021/06/16 11:50:25;;;;;;;1999.90;999.90;;;32.50;6.80;;;;;;5055993;28;20656;-88
2021/06/16 11:53:03;;;;;;;1999.90;999.90;;;32.10;4.60;;;;;;5056270;28;20411;-88
2021/06/16 11:55:56;;;;;;;1999.90;999.90;;;31.70;9.40;;;;;;5055066;28;20414;-89
2021/06/16 11:58:32;;;;;;;1999.90;999.90;;;31.80;5.50;;;;;;5053303;28;20415;-88
2021/06/16 12:01:16;;;;;;;1999.90;999.90;;;32.10;5.10;;;;;;5056024;28;20825;-88
2021/06/16 12:03:57;;;;;;;1999.90;999.90;;;32.50;5.30;;;;;;5054824;28;20457;-88
2021/06/16 12:06:23;;;;;;;1999.90;999.90;;;32.50;3.80;;;;;;5054768;28;20396;-88
2021/06/16 12:08:59;;;;;;;1999.90;999.90;;;32.30;3.90;;;;;;5055936;28;20423;-88
2021/06/16 12:11:30;;;;;;;1999.90;999.90;;;32.30;3.80;;;;;;5056122;28;20807;-87
2021/06/16 12:13:57;;;;;;;1999.90;999.90;;;31.90;3.40;;;;;;5055563;28;20895;-88
2021/06/16 12:19:39;;;;;;;1999.90;999.90;;;32.00;7.30;;;;;;5059972;28;20443;-84
2021/06/16 12:22:08;;;;;;;1999.90;999.90;;;32.10;3.40;;;;;;5059907;28;20427;-83